Time;durP1;ratioP1;P1;durP2;ratioP2;P2;SDS_P1;SDS_P2;PMS_P1;PMS_P2;Temp;Humidity;BMP_temperature;BMP_pressure;BME280_temperature;BME280_humidity;BME280_pressure;Samples;Min_cycle;Max_cycle;Signal;HPM_P1;HPM_P2
2022/06/26 00:00:56;;;;;;;1.20;1.20;;;22.50;99.90;;;23.41;nan;100241.97;4972226;28;20643;-64
2022/06/26 00:03:23;;;;;;;1.47;1.37;;;22.50;99.90;;;23.34;nan;100241.13;4973706;28;20643;-65
2022/06/26 00:05:50;;;;;;;1.40;1.30;;;22.50;99.90;;;23.26;nan;100243.97;4973659;28;20661;-64
2022/06/26 00:08:17;;;;;;;1.20;1.20;;;22.40;99.90;;;23.33;nan;100249.34;4973698;28;20618;-65
2022/06/26 00:10:46;;;;;;;1.50;1.40;;;22.50;99.90;;;23.26;nan;100248.47;4972870;28;20641;-64
2022/06/26 00:13:14;;;;;;;1.53;1.43;;;22.40;99.90;;;23.25;nan;100257.47;4972860;28;20623;-65
2022/06/26 00:15:42;;;;;;;1.57;1.47;;;22.40;99.90;;;23.31;nan;100260.16;4972572;28;20663;-65
2022/06/26 00:18:10;;;;;;;1.23;1.23;;;22.50;99.90;;;23.30;nan;100268.34;4973711;28;20768;-65
2022/06/26 00:20:37;;;;;;;1.20;1.20;;;22.40;99.90;;;23.31;nan;100272.63;4970949;28;20646;-64
2022/06/26 00:23:04;;;;;;;1.37;1.27;;;22.50;99.90;;;23.34;nan;100267.75;4973483;28;20646;-64
2022/06/26 00:25:31;;;;;;;4.10;1.40;;;22.50;99.90;;;23.29;nan;100278.19;4973336;28;20670;-65
2022/06/26 00:27:59;;;;;;;1.27;1.27;;;22.40;99.90;;;23.25;nan;100281.44;4974324;28;20615;-65
2022/06/26 00:30:26;;;;;;;1.73;1.63;;;22.40;99.90;;;23.28;nan;100281.00;4973273;28;20643;-65
2022/06/26 00:32:53;;;;;;;1.60;1.50;;;22.40;99.90;;;;;;4974175;28;20627;-64
2022/06/26 00:35:20;;;;;;;1.33;1.33;;;22.40;99.90;;;23.25;nan;100281.44;4973667;28;20639;-64
2022/06/26 00:37:46;;;;;;;1.33;1.27;;;22.40;99.90;;;23.30;nan;100284.31;4974329;28;20606;-64
2022/06/26 00:40:13;;;;;;;1.50;1.40;;;22.50;99.90;;;23.27;nan;100290.88;4972726;28;20231;-66
2022/06/26 00:42:41;;;;;;;1.83;1.60;;;22.40;99.90;;;23.29;nan;100302.13;4969535;28;20643;-65
2022/06/26 00:45:09;;;;;;;1.40;1.30;;;22.50;99.90;;;23.28;nan;100299.66;4972420;28;20654;-65
2022/06/26 00:47:36;;;;;;;1.20;1.10;;;22.40;99.90;;;23.24;nan;100301.06;4972285;28;20615;-65
2022/06/26 00:50:07;;;;;;;1.33;1.30;;;22.40;99.90;;;23.24;nan;100303.72;4973714;28;20662;-65
2022/06/26 00:52:36;;;;;;;1.33;1.33;;;22.40;99.90;;;23.22;nan;100313.75;4972765;28;20651;-64
2022/06/26 00:55:04;;;;;;;1.20;1.20;;;22.40;99.90;;;23.23;nan;100316.25;4972095;28;20760;-66
2022/06/26 00:57:33;;;;;;;1.90;0.90;;;22.40;99.90;;;23.27;nan;100325.47;4972773;28;20629;-65
2022/06/26 01:00:01;;;;;;;1.70;1.17;;;22.40;99.90;;;23.18;nan;100321.34;4973298;28;20671;-64
2022/06/26 01:02:27;;;;;;;4.13;1.37;;;22.40;99.90;;;23.16;nan;100334.03;4972396;28;20638;-64
2022/06/26 01:04:54;;;;;;;2.00;1.43;;;22.30;99.90;;;23.00;nan;100337.00;4971832;28;20694;-65
2022/06/26 01:07:22;;;;;;;1.57;1.47;;;22.20;99.90;;;23.02;nan;100335.78;4972710;28;20959;-64
2022/06/26 01:09:49;;;;;;;1.50;1.27;;;22.20;99.90;;;23.00;nan;100335.16;4972591;28;20638;-63
2022/06/26 01:12:16;;;;;;;2.70;1.60;;;22.20;99.90;;;22.98;nan;100333.72;4973379;28;20630;-64
2022/06/26 01:14:43;;;;;;;3.73;1.23;;;22.10;99.90;;;23.00;nan;100337.81;4971361;28;20671;-65
2022/06/26 01:17:10;;;;;;;1.10;1.10;;;22.20;99.90;;;23.04;nan;100340.94;4953693;28;20643;-65
2022/06/26 01:19:38;;;;;;;9.40;1.40;;;22.20;99.90;;;22.98;nan;100355.84;4970890;28;21008;-65
2022/06/26 01:22:05;;;;;;;1.57;1.30;;;22.10;99.90;;;22.99;nan;100370.78;4971803;28;21222;-66
2022/06/26 01:24:32;;;;;;;1.03;1.03;;;22.20;99.90;;;22.90;nan;100365.81;4972600;28;21026;-64
2022/06/26 01:27:00;;;;;;;1.10;1.10;;;22.10;99.90;;;22.86;nan;100373.38;4972303;28;20631;-65
2022/06/26 01:29:27;;;;;;;1.00;1.00;;;22.00;99.90;;;22.72;nan;100376.94;4963871;28;20684;-66
2022/06/26 01:31:54;;;;;;;1.30;1.30;;;21.90;99.90;;;22.61;nan;100374.03;4967881;28;20639;-66
2022/06/26 01:34:22;;;;;;;1.23;1.10;;;21.90;99.90;;;22.52;nan;100378.63;4971928;28;20662;-67
2022/06/26 01:36:49;;;;;;;1.27;1.27;;;21.80;99.90;;;22.55;nan;100372.94;4969953;28;20645;-64
2022/06/26 01:39:20;;;;;;;1.30;1.30;;;21.80;99.90;;;22.60;nan;100377.69;4972545;28;20666;-65
2022/06/26 01:41:49;;;;;;;1.60;1.50;;;21.80;99.90;;;22.59;nan;100384.03;4971206;28;20627;-65
2022/06/26 01:44:16;;;;;;;1.60;1.50;;;21.80;99.90;;;22.65;nan;100381.44;4955064;28;20674;-65
2022/06/26 01:46:43;;;;;;;1.30;1.30;;;21.90;99.90;;;22.71;nan;100388.63;4971935;28;20635;-64
2022/06/26 01:49:11;;;;;;;1.50;1.50;;;21.90;99.90;;;22.78;nan;100383.34;4972514;28;20627;-64
2022/06/26 01:51:38;;;;;;;1.63;1.37;;;22.00;99.90;;;22.79;nan;100387.63;4970426;28;20630;-64
2022/06/26 01:54:05;;;;;;;2.00;1.90;;;21.90;99.90;;;22.77;nan;100377.19;4972203;28;21294;-66
2022/06/26 01:56:32;;;;;;;1.70;1.60;;;22.00;99.90;;;22.81;nan;100375.78;4971806;28;21217;-65
2022/06/26 01:58:58;;;;;;;1.63;1.53;;;22.00;99.90;;;22.83;nan;100371.09;4972228;28;20667;-64
2022/06/26 02:01:26;;;;;;;1.60;1.50;;;22.00;99.90;;;22.86;nan;100364.56;4969566;28;20639;-64
2022/06/26 02:03:53;;;;;;;2.33;1.53;;;22.00;99.90;;;22.85;nan;100360.28;4969439;28;21221;-65
2022/06/26 02:06:20;;;;;;;1.47;1.13;;;22.00;99.90;;;22.85;nan;100352.28;4971108;28;20703;-65
2022/06/26 02:08:47;;;;;;;4.90;1.50;;;22.00;99.90;;;22.89;nan;100348.22;4969232;28;20622;-64
2022/06/26 02:14:00;;;;;;;4.47;1.73;;;22.00;99.90;;;22.63;nan;100348.88;4970786;28;21004;-65
2022/06/26 02:16:27;;;;;;;1.67;1.57;;;21.80;99.90;;;22.58;nan;100345.94;4970761;28;20642;-65
2022/06/26 02:18:57;;;;;;;1.60;1.60;;;21.80;99.90;;;22.39;nan;100346.63;4971807;28;20627;-65
2022/06/26 02:21:27;;;;;;;1.43;1.33;;;21.60;99.90;;;22.40;nan;100343.75;4969125;28;21225;-65
2022/06/26 02:23:56;;;;;;;1.70;1.70;;;21.60;99.90;;;22.38;nan;100329.06;4971347;28;20635;-66
2022/06/26 02:26:24;;;;;;;1.53;1.47;;;21.50;99.90;;;22.41;nan;100326.00;4970436;28;20653;-63
2022/06/26 02:28:51;;;;;;;2.30;2.10;;;21.60;99.90;;;22.44;nan;100312.31;4969402;28;20630;-64
2022/06/26 02:31:18;;;;;;;2.10;2.00;;;21.60;99.90;;;22.44;nan;100307.00;4959692;28;20640;-65
2022/06/26 02:33:45;;;;;;;2.00;1.90;;;21.70;99.90;;;22.47;nan;100306.59;4960431;28;20635;-64
2022/06/26 02:36:13;;;;;;;1.87;1.77;;;21.70;99.90;;;22.51;nan;100304.38;4964448;28;20650;-64
2022/06/26 02:38:41;;;;;;;4.73;1.70;;;21.70;99.90;;;22.49;nan;100299.25;4966328;28;20636;-64
2022/06/26 02:41:08;;;;;;;2.37;1.60;;;21.70;99.90;;;22.47;nan;100301.28;4950934;28;20620;-66
2022/06/26 02:43:35;;;;;;;1.80;1.70;;;21.70;99.90;;;22.50;nan;100298.25;4963489;28;20658;-65
2022/06/26 02:46:02;;;;;;;2.00;1.90;;;21.70;99.90;;;22.50;nan;100300.91;4971055;28;20630;-65
2022/06/26 02:48:30;;;;;;;1.73;1.63;;;21.70;99.90;;;22.50;nan;100300.91;4968448;28;20646;-66
2022/06/26 02:50:57;;;;;;;2.03;1.83;;;21.70;99.90;;;22.52;nan;100298.03;4969785;28;20692;-65
2022/06/26 02:53:24;;;;;;;2.50;2.30;;;21.70;99.90;;;22.55;nan;100302.97;4970996;28;20627;-66
2022/06/26 02:55:51;;;;;;;2.00;1.57;;;21.70;99.90;;;22.52;nan;100306.84;4970711;28;20654;-65
2022/06/26 02:58:18;;;;;;;1.80;1.70;;;21.70;99.90;;;22.40;nan;100311.06;4970798;28;20764;-64
2022/06/26 03:00:46;;;;;;;1.40;1.33;;;21.60;99.90;;;22.37;nan;100324.72;4953622;28;20663;-66
2022/06/26 03:03:15;;;;;;;2.50;2.20;;;21.60;99.90;;;22.25;nan;100318.31;4963693;28;20649;-64
2022/06/26 03:05:42;;;;;;;1.87;1.77;;;21.40;99.90;;;22.13;nan;100325.97;4960758;28;20726;-65
2022/06/26 03:08:09;;;;;;;2.37;1.87;;;21.30;99.90;;;22.13;nan;100319.84;4970151;28;20654;-66
2022/06/26 03:10:36;;;;;;;2.00;1.90;;;21.30;99.90;;;22.06;nan;100317.13;4969589;28;20652;-65
2022/06/26 03:13:03;;;;;;;2.10;2.00;;;21.20;99.90;;;22.03;nan;100316.69;4971528;28;20976;-65
2022/06/26 03:15:31;;;;;;;1.90;1.80;;;21.20;99.90;;;22.03;nan;100314.88;4968616;28;20796;-65
2022/06/26 03:17:58;;;;;;;4.50;1.93;;;21.20;99.90;;;22.03;nan;100324.66;4961832;28;20633;-66
2022/06/26 03:20:25;;;;;;;2.30;2.10;;;21.20;99.90;;;22.09;nan;100318.56;4955791;28;20668;-65
2022/06/26 03:22:52;;;;;;;3.07;1.90;;;21.20;99.90;;;22.10;nan;100320.22;4971370;28;20628;-64
2022/06/26 03:25:19;;;;;;;2.30;2.20;;;21.30;99.90;;;22.08;nan;100322.25;4970321;28;20642;-66
2022/06/26 03:27:46;;;;;;;1.90;1.80;;;21.30;99.90;;;22.07;nan;100331.22;4970394;28;21306;-65
2022/06/26 03:30:13;;;;;;;1.90;1.63;;;21.20;99.90;;;22.06;nan;100330.41;4956994;28;20639;-64
2022/06/26 03:32:41;;;;;;;1.93;1.90;;;21.30;99.90;;;22.07;nan;100331.22;4963861;28;20639;-66
2022/06/26 03:35:09;;;;;;;2.20;2.00;;;21.30;99.90;;;22.02;nan;100341.63;4971012;28;20670;-65
2022/06/26 03:37:36;;;;;;;1.83;1.83;;;21.20;99.90;;;22.03;nan;100353.88;4969921;28;20737;-65
2022/06/26 03:40:04;;;;;;;1.70;1.60;;;21.20;99.90;;;21.91;nan;100356.25;4969161;28;20664;-66
2022/06/26 03:42:32;;;;;;;1.80;1.70;;;21.10;99.90;;;21.61;nan;100370.59;4969547;28;21214;-67
2022/06/26 03:44:59;;;;;;;1.70;1.60;;;20.90;99.90;;;21.53;nan;100368.88;4949447;29;21242;-66
2022/06/26 03:47:26;;;;;;;1.37;1.27;;;20.70;99.90;;;21.60;nan;100372.44;4951559;28;20608;-65
2022/06/26 03:49:54;;;;;;;1.93;1.83;;;20.80;99.90;;;21.54;nan;100365.22;4970034;28;20646;-65
2022/06/26 03:52:23;;;;;;;2.00;1.90;;;20.70;99.90;;;21.21;nan;100366.63;4973911;28;20639;-66
2022/06/26 03:54:50;;;;;;;1.63;1.57;;;20.50;99.90;;;21.20;nan;100364.19;4973356;28;20663;-66
2022/06/26 03:57:18;;;;;;;2.30;2.20;;;20.40;99.90;;;21.21;nan;100350.72;4974574;28;21180;-65
2022/06/26 03:59:50;;;;;;;1.90;1.60;;;20.50;99.90;;;21.29;nan;100347.97;4972025;28;20690;-64
2022/06/26 04:02:17;;;;;;;2.63;1.63;;;20.50;99.90;;;21.36;nan;100356.81;4974823;28;20640;-65
2022/06/26 04:04:44;;;;;;;1.60;1.50;;;20.60;99.90;;;21.46;nan;100354.72;4973724;28;20657;-64
2022/06/26 04:07:12;;;;;;;2.03;1.93;;;20.70;99.90;;;21.53;nan;100358.25;4973555;28;21229;-65
2022/06/26 04:09:40;;;;;;;1.80;1.70;;;20.80;99.90;;;21.56;nan;100355.22;4970437;28;20638;-65
2022/06/26 04:12:08;;;;;;;1.60;1.50;;;20.80;99.90;;;21.52;nan;100356.63;4963582;28;20643;-63
2022/06/26 04:14:35;;;;;;;1.27;1.27;;;20.80;99.90;;;21.55;nan;100358.88;4964381;28;20674;-63
2022/06/26 04:17:03;;;;;;;1.43;1.33;;;20.80;99.90;;;21.44;nan;100370.00;4972383;28;20639;-65
2022/06/26 04:19:30;;;;;;;1.80;1.70;;;20.70;99.90;;;21.47;nan;100377.59;4971300;28;20651;-65
2022/06/26 04:21:57;;;;;;;1.70;1.60;;;20.70;99.90;;;21.61;nan;100382.03;4973420;28;21257;-63
2022/06/26 04:24:24;;;;;;;1.77;1.67;;;20.90;99.90;;;21.60;nan;100374.25;4972688;28;21029;-65
2022/06/26 04:26:51;;;;;;;2.00;1.80;;;20.90;99.90;;;21.66;nan;100367.38;4973070;28;20639;-65
2022/06/26 04:29:18;;;;;;;2.13;2.00;;;20.90;99.90;;;21.78;nan;100368.53;4966724;28;20612;-64
2022/06/26 04:31:46;;;;;;;1.87;1.77;;;21.00;99.90;;;21.75;nan;100367.06;4968528;28;20643;-64
2022/06/26 04:34:13;;;;;;;1.80;1.70;;;21.00;99.90;;;21.79;nan;100367.50;4973244;28;20698;-64
2022/06/26 04:36:41;;;;;;;2.10;2.00;;;21.00;99.90;;;21.93;nan;100369.34;4971936;28;20639;-64
2022/06/26 04:39:08;;;;;;;1.70;1.60;;;21.20;99.90;;;22.20;nan;100376.53;4973071;28;20966;-65
2022/06/26 04:41:35;;;;;;;2.00;1.90;;;21.60;99.90;;;22.42;nan;100390.63;4972869;28;20670;-64
2022/06/26 04:44:08;;;;;;;1.77;1.67;;;21.80;99.90;;;22.68;nan;100388.19;4967378;28;20722;-66
2022/06/26 04:46:38;;;;;;;1.90;1.80;;;22.10;99.90;;;22.90;nan;100379.13;4971568;28;20628;-65
2022/06/26 04:49:06;;;;;;;1.93;1.83;;;22.40;99.90;;;23.26;nan;100381.53;4970828;28;20638;-65
2022/06/26 04:51:37;;;;;;;1.50;1.40;;;22.70;99.90;;;23.24;nan;100378.25;4972411;28;21198;-64
2022/06/26 04:54:08;;;;;;;1.83;1.73;;;22.70;99.90;;;23.47;nan;100384.94;4971695;28;20647;-68
2022/06/26 04:56:36;;;;;;;1.70;1.60;;;23.00;99.90;;;23.71;nan;100380.94;4942493;29;21188;-65
2022/06/26 04:59:05;;;;;;;1.50;1.50;;;23.20;99.90;;;23.85;nan;100387.94;4952172;28;20639;-64
2022/06/26 05:01:32;;;;;;;1.30;1.30;;;23.30;99.90;;;24.00;nan;100401.88;4967542;28;20852;-65
2022/06/26 05:04:01;;;;;;;1.50;1.50;;;23.50;99.90;;;24.13;nan;100407.28;4970715;28;20725;-66
2022/06/26 05:06:28;;;;;;;1.20;1.20;;;23.60;99.90;;;24.10;nan;100409.53;4970728;28;20635;-64
2022/06/26 05:08:55;;;;;;;1.63;1.30;;;23.60;99.90;;;24.46;nan;100413.47;4972664;28;20623;-65
2022/06/26 05:11:22;;;;;;;1.43;1.43;;;23.90;99.90;;;24.53;nan;100408.94;4972125;28;20650;-63
2022/06/26 05:13:49;;;;;;;1.70;1.70;;;24.00;99.90;;;24.53;nan;100414.28;4972767;28;20634;-66
2022/06/26 05:16:16;;;;;;;1.80;1.70;;;24.00;99.90;;;24.75;nan;100424.75;4952536;28;20632;-63
2022/06/26 05:18:43;;;;;;;1.87;1.77;;;24.20;99.90;;;24.78;nan;100435.03;4956300;28;20624;-65
2022/06/26 05:21:10;;;;;;;1.73;1.63;;;24.20;99.90;;;24.80;nan;100428.47;4952921;28;20671;-63
2022/06/26 05:23:37;;;;;;;2.03;1.80;;;24.40;99.90;;;24.95;nan;100423.72;4957929;28;20989;-65
2022/06/26 05:26:05;;;;;;;1.80;1.70;;;24.40;99.90;;;24.94;nan;100422.06;4951263;28;20632;-66
2022/06/26 05:28:32;;;;;;;2.00;1.80;;;24.40;99.90;;;24.94;nan;100421.22;4953235;28;20620;-66
2022/06/26 05:31:00;;;;;;;2.17;1.73;;;24.40;99.90;;;24.92;nan;100428.63;4965697;28;20639;-66
2022/06/26 05:33:27;;;;;;;1.70;1.60;;;24.40;99.90;;;25.20;nan;100429.19;4980702;28;21062;-65
2022/06/26 05:35:54;;;;;;;1.70;1.60;;;24.70;99.90;;;25.42;nan;100435.13;4972065;28;20655;-63
2022/06/26 05:38:21;;;;;;;4.30;1.80;;;24.90;99.90;;;25.76;nan;100448.97;4972869;28;20634;-65
2022/06/26 05:40:47;;;;;;;1.57;1.50;;;25.30;99.90;;;26.09;nan;100449.63;4972078;28;20678;-65
2022/06/26 05:43:14;;;;;;;2.30;1.20;;;25.60;99.90;;;26.33;nan;100447.19;4971959;28;20666;-65
2022/06/26 05:45:42;;;;;;;1.60;1.50;;;25.90;99.90;;;26.50;nan;100450.97;4969082;28;20663;-66
2022/06/26 05:48:09;;;;;;;1.37;1.27;;;26.00;99.90;;;26.81;nan;100456.31;4971362;28;20623;-65
2022/06/26 05:50:36;;;;;;;1.70;1.40;;;26.30;99.90;;;26.84;nan;100451.34;4970015;28;21453;-65
2022/06/26 05:53:03;;;;;;;1.57;1.33;;;26.40;99.90;;;26.36;nan;100447.59;4972010;28;20623;-64
2022/06/26 05:55:30;;;;;;;1.47;1.37;;;25.90;99.90;;;26.19;nan;100434.97;4978088;28;21246;-66
2022/06/26 05:57:57;;;;;;;3.47;1.47;;;25.70;99.90;;;26.17;nan;100437.84;4971160;28;20631;-65
2022/06/26 06:00:24;;;;;;;1.90;1.80;;;25.50;99.90;;;26.81;nan;100437.59;4970908;28;20686;-65
2022/06/26 06:02:51;;;;;;;1.10;1.10;;;26.20;99.90;;;27.09;nan;100448.59;4971472;28;20640;-65
2022/06/26 06:05:18;;;;;;;1.30;1.30;;;26.70;99.90;;;27.88;nan;100461.91;4971156;28;20652;-65
2022/06/26 06:07:45;;;;;;;1.70;1.23;;;27.40;99.40;;;28.14;nan;100463.44;4970297;28;20639;-66
2022/06/26 06:10:12;;;;;;;1.30;1.27;;;27.80;98.20;;;28.24;nan;100469.06;4969760;28;20650;-65
2022/06/26 06:12:39;;;;;;;1.10;1.10;;;28.00;97.20;;;28.55;nan;100468.81;4970600;28;20638;-65
2022/06/26 06:15:07;;;;;;;1.10;1.10;;;28.00;96.60;;;28.10;nan;100463.09;4970364;28;21219;-66
2022/06/26 06:17:37;;;;;;;1.33;1.10;;;27.60;95.80;;;28.48;nan;100462.72;4971480;28;20630;-66
2022/06/26 06:20:10;;;;;;;1.20;1.20;;;27.80;95.50;;;29.00;nan;100461.88;4969976;28;21253;-66
2022/06/26 06:22:43;;;;;;;1.23;1.13;;;28.40;95.10;;;29.68;nan;100472.78;4972214;28;20674;-64
2022/06/26 06:25:11;;;;;;;2.53;1.00;;;29.10;93.80;;;30.49;nan;100469.75;4970977;28;20654;-64
2022/06/26 06:27:43;;;;;;;1.03;1.03;;;30.00;92.30;;;31.05;nan;100476.03;4970761;28;20751;-67
2022/06/26 06:30:12;;;;;;;1.17;1.17;;;30.70;90.20;;;31.40;nan;100484.63;4966757;28;20647;-65
2022/06/26 06:32:40;;;;;;;1.20;1.10;;;31.10;88.10;;;32.20;nan;100492.06;4970725;28;21183;-67
2022/06/26 06:35:11;;;;;;;1.63;1.00;;;31.70;86.10;;;33.13;nan;100495.03;4967162;28;20698;-65
2022/06/26 06:37:41;;;;;;;1.20;1.20;;;32.70;82.00;;;34.05;nan;100503.34;4960489;28;21203;-66
2022/06/26 06:40:12;;;;;;;0.90;0.90;;;33.60;77.80;;;34.61;nan;100506.16;4970346;28;20638;-65
2022/06/26 06:42:42;;;;;;;0.90;0.90;;;34.10;72.20;;;34.83;nan;100503.94;4970154;28;20635;-64
2022/06/26 06:45:10;;;;;;;0.90;0.90;;;34.40;68.50;;;35.01;nan;100504.22;4968327;28;20671;-65
2022/06/26 06:47:37;;;;;;;1.10;1.10;;;34.30;67.60;;;35.64;nan;100508.13;4977767;28;20624;-65
2022/06/26 06:50:05;;;;;;;1.10;1.10;;;35.00;65.40;;;36.56;nan;100514.69;4975214;28;20639;-65
2022/06/26 06:52:32;;;;;;;1.00;1.00;;;35.90;63.40;;;37.63;nan;100526.16;4951453;28;21400;-65
2022/06/26 06:55:00;;;;;;;1.40;1.40;;;37.00;61.10;;;38.75;nan;100527.03;4958102;28;20667;-65
2022/06/26 06:57:27;;;;;;;1.50;1.40;;;38.10;58.70;;;;;;4972149;28;20630;-65
2022/06/26 06:59:54;;;;;;;1.37;1.27;;;38.90;56.20;;;;;;4978366;28;20633;-65
2022/06/26 07:02:20;;;;;;;1.10;1.10;;;39.70;54.60;;;;;;4971270;28;20737;-65
2022/06/26 07:04:47;;;;;;;1.03;1.03;;;40.30;52.90;;;;;;4975950;28;20745;-65
2022/06/26 07:07:14;;;;;;;0.90;0.90;;;40.30;51.90;;;;;;5004614;28;20701;-66
2022/06/26 07:09:41;;;;;;;0.80;0.80;;;41.20;51.00;;;;;;4970439;28;21199;-63
2022/06/26 07:12:08;;;;;;;3.53;1.07;;;41.90;49.50;;;;;;4958434;28;20636;-64
2022/06/26 07:14:38;;;;;;;1.20;1.20;;;42.00;48.50;;;;;;4951148;28;20747;-64
2022/06/26 07:17:05;;;;;;;1.00;1.00;;;41.40;48.20;;;;;;4963442;28;20710;-64
2022/06/26 07:19:38;;;;;;;1.20;1.20;;;41.70;47.50;;;;;;4971091;28;20615;-64
2022/06/26 07:22:05;;;;;;;1.10;1.10;;;42.30;47.10;;;;;;4972981;28;20673;-64
2022/06/26 07:24:32;;;;;;;0.93;0.93;;;42.00;47.20;;;;;;4974699;28;20742;-64
2022/06/26 07:26:59;;;;;;;1.20;1.20;;;42.80;46.50;;;;;;4965880;28;20618;-64
2022/06/26 07:29:26;;;;;;;1.07;1.07;;;43.40;45.70;;;;;;4973620;28;20672;-64
2022/06/26 07:31:53;;;;;;;1.20;1.20;;;43.80;45.70;;;;;;4967761;28;20699;-64
2022/06/26 07:34:21;;;;;;;1.00;1.00;;;43.30;44.70;;;;;;4971418;28;20777;-64
2022/06/26 07:36:49;;;;;;;1.40;1.30;;;42.90;46.20;;;;;;4973578;28;21381;-63
2022/06/26 07:39:20;;;;;;;1.03;1.03;;;43.80;45.00;;;;;;4973772;28;20723;-64
2022/06/26 07:41:48;;;;;;;1.20;1.20;;;43.90;44.40;;;;;;4985630;28;20805;-64
2022/06/26 07:44:15;;;;;;;1.10;1.10;;;43.60;44.20;;;;;;4974910;28;21246;-64
2022/06/26 07:46:43;;;;;;;1.10;1.07;;;42.80;44.60;;;;;;4981074;28;20637;-63
2022/06/26 07:49:12;;;;;;;1.93;1.10;;;41.70;45.30;;;;;;4983263;28;20630;-64
2022/06/26 07:51:39;;;;;;;1.00;1.00;;;41.50;45.70;;;;;;4973188;28;20653;-63
2022/06/26 07:54:06;;;;;;;1.20;1.10;;;40.10;46.30;;;;;;4973661;28;20729;-64
2022/06/26 07:56:32;;;;;;;3.83;1.30;;;38.70;47.50;;;;;;4974893;28;20657;-65
2022/06/26 07:58:59;;;;;;;1.10;1.10;;;38.10;48.60;;;;;;4973448;28;21266;-64
2022/06/26 08:01:26;;;;;;;1.10;1.10;;;37.70;49.50;;;;;;4967472;28;20677;-65
2022/06/26 08:03:54;;;;;;;0.90;0.90;;;37.60;49.80;;;;;;4986569;28;21225;-65
2022/06/26 08:06:21;;;;;;;1.10;1.10;;;37.30;49.20;;;;;;4975668;28;20729;-65
2022/06/26 08:08:48;;;;;;;1.40;1.40;;;37.00;50.00;;;;;;4973228;28;20686;-64
2022/06/26 08:11:15;;;;;;;1.30;1.30;;;36.70;50.40;;;;;;4960435;28;20739;-66
2022/06/26 08:13:42;;;;;;;1.43;1.37;;;36.40;50.50;;;;;;4968956;28;20635;-66
2022/06/26 08:16:09;;;;;;;1.57;1.10;;;36.00;51.30;;;;;;4973759;28;20699;-65
2022/06/26 08:18:37;;;;;;;1.20;1.20;;;35.20;52.70;;;;;;4988555;28;20678;-64
2022/06/26 08:23:50;;;;;;;1.33;1.33;;;34.30;53.70;;;;;;4973022;28;20718;-64
2022/06/26 08:26:17;;;;;;;1.53;1.30;;;33.90;54.20;;;;;;4973838;28;21244;-64
2022/06/26 08:28:44;;;;;;;1.50;1.40;;;33.30;54.80;;;;;;4972280;28;20981;-64
2022/06/26 08:31:11;;;;;;;1.20;1.20;;;33.20;55.20;;;;;;4971022;28;20651;-64
2022/06/26 08:33:38;;;;;;;1.20;1.20;;;32.70;56.90;;;;;;4971329;28;20627;-65
2022/06/26 08:36:05;;;;;;;1.90;1.37;;;32.00;57.60;;;;;;4973298;28;20674;-63
2022/06/26 08:38:32;;;;;;;1.20;1.20;;;32.30;57.20;;;;;;4973267;28;20643;-66
2022/06/26 08:41:00;;;;;;;2.83;1.07;;;32.40;57.30;;;;;;4972406;28;20663;-63
2022/06/26 08:43:28;;;;;;;1.30;1.20;;;32.40;56.70;;;;;;4971994;28;20659;-64
2022/06/26 08:46:03;;;;;;;1.03;1.03;;;31.90;57.00;;;;;;4972899;28;20690;-65
2022/06/26 08:48:40;;;;;;;1.40;1.20;;;31.90;56.20;;;;;;4972724;28;20619;-64
2022/06/26 08:51:11;;;;;;;1.20;1.20;;;32.00;57.00;;;;;;4973869;28;20646;-65
2022/06/26 08:53:39;;;;;;;1.30;1.30;;;31.80;57.80;;;;;;4972975;28;20661;-63
2022/06/26 08:56:06;;;;;;;1.07;1.07;;;31.20;59.30;;;;;;4968903;28;20647;-69
2022/06/26 08:58:33;;;;;;;1.70;1.60;;;31.30;59.80;;;;;;4972639;28;20723;-67
2022/06/26 09:01:00;;;;;;;1.10;1.10;;;31.20;59.90;;;;;;4972402;28;20663;-69
2022/06/26 09:03:27;;;;;;;1.70;1.70;;;31.10;60.30;;;;;;4972382;28;20630;-66
2022/06/26 09:05:53;;;;;;;1.50;1.50;;;30.70;61.40;;;;;;4974524;28;20639;-65
2022/06/26 09:08:21;;;;;;;1.80;1.70;;;30.60;62.10;;;;;;4973047;28;20623;-68
2022/06/26 09:10:49;;;;;;;1.33;1.23;;;30.50;61.90;;;;;;4971781;28;21180;-66
2022/06/26 09:13:16;;;;;;;1.93;1.47;;;30.50;62.30;;;;;;4972995;28;20620;-64
2022/06/26 09:15:44;;;;;;;1.40;1.40;;;30.20;62.60;;;;;;4972030;28;20635;-64
2022/06/26 09:18:13;;;;;;;1.60;1.57;;;30.20;63.10;;;;;;4972521;28;21076;-65
2022/06/26 09:20:54;;;;;;;1.53;1.40;;;30.30;63.20;;;;;;4972589;28;20621;-65
2022/06/26 09:23:22;;;;;;;1.10;1.10;;;30.20;63.60;;;;;;4973711;28;20615;-66
2022/06/26 09:25:55;;;;;;;1.13;1.10;;;29.90;62.80;;;;;;4971178;28;20639;-66
2022/06/26 09:28:22;;;;;;;1.63;1.50;;;29.90;63.50;;;;;;4953215;28;20614;-67
2022/06/26 09:30:56;;;;;;;1.10;1.10;;;29.70;63.20;;;;;;4965674;28;21182;-65
2022/06/26 09:33:34;;;;;;;1.10;1.10;;;29.70;63.40;;;;;;4972588;28;20630;-65
2022/06/26 09:36:03;;;;;;;1.10;1.10;;;29.80;62.70;;;;;;4972737;28;20669;-66
2022/06/26 09:38:33;;;;;;;1.03;1.03;;;30.00;63.10;;;;;;4973201;28;20634;-64
2022/06/26 09:41:02;;;;;;;1.00;1.00;;;30.10;62.60;;;;;;4972660;28;20667;-65
2022/06/26 09:43:32;;;;;;;1.30;1.20;;;30.00;63.30;;;;;;4971839;28;20625;-65
2022/06/26 09:46:02;;;;;;;1.80;1.23;;;30.30;62.90;;;;;;4971161;28;20633;-65
2022/06/26 09:48:29;;;;;;;1.30;1.30;;;30.40;62.60;;;;;;4966170;28;20651;-64
2022/06/26 09:50:57;;;;;;;1.10;1.10;;;30.50;62.20;;;;;;4970738;28;20735;-64
2022/06/26 09:53:25;;;;;;;1.20;1.10;;;30.40;61.60;;;;;;4971567;28;20615;-69
2022/06/26 09:55:54;;;;;;;1.00;1.00;;;30.10;62.00;;;;;;4970219;28;20753;-65
2022/06/26 09:58:22;;;;;;;1.30;1.00;;;29.90;62.60;;;;;;4970830;28;20940;-65
2022/06/26 10:06:28;;;;;;;1.23;1.20;;;29.70;63.30;;;;;;4971724;28;20665;-66
2022/06/26 10:08:56;;;;;;;1.60;1.10;;;29.70;62.60;;;;;;4984685;28;20697;-67
2022/06/26 10:11:27;;;;;;;1.00;1.00;;;29.70;62.90;;;;;;4951980;28;20643;-66
2022/06/26 10:14:05;;;;;;;1.00;1.00;;;29.80;62.10;;;;;;4958219;28;20664;-66
2022/06/26 10:17:08;;;;;;;0.93;0.93;;;29.80;62.40;;;;;;4964320;28;20633;-66
2022/06/26 10:19:57;;;;;;;1.33;1.33;;;30.10;62.70;;;;;;4954819;28;20633;-65
2022/06/26 10:22:24;;;;;;;1.33;1.23;;;29.90;63.00;;;;;;4968179;28;20663;-67
2022/06/26 10:24:55;;;;;;;1.53;1.43;;;29.80;63.30;;;;;;4971128;28;21006;-67
2022/06/26 10:27:29;;;;;;;1.07;1.07;;;29.70;63.10;;;;;;4969888;28;20639;-66
2022/06/26 10:30:14;;;;;;;1.10;1.10;;;29.70;62.90;;;;;;4970051;28;20623;-67
2022/06/26 10:32:42;;;;;;;1.60;1.20;;;30.00;63.20;;;;;;4959518;28;20718;-65
2022/06/26 10:35:11;;;;;;;0.90;0.90;;;30.20;62.70;;;;;;4970975;28;21022;-66
2022/06/26 10:37:42;;;;;;;1.17;1.17;;;30.60;62.00;;;;;;4968005;28;20624;-67
2022/06/26 10:42:52;;;;;;;1.23;1.13;;;30.30;61.60;;;;;;4967130;28;20659;-66
2022/06/26 10:43:02;;;;;;;1.17;1.10;;;30.20;61.80;;;;;;4965391;28;20675;-66
2022/06/26 10:45:36;;;;;;;1.00;1.00;;;30.20;61.90;;;;;;4952628;28;21097;-66
2022/06/26 10:48:10;;;;;;;1.10;1.10;;;29.90;62.00;;;;;;4965227;28;20990;-65
2022/06/26 10:50:38;;;;;;;1.10;1.10;;;29.60;62.60;;;;;;4965979;28;20621;-66
2022/06/26 10:53:18;;;;;;;1.03;1.03;;;29.50;62.80;;;;;;4964165;28;21197;-68
2022/06/26 10:55:53;;;;;;;1.57;1.50;;;29.60;62.70;;;;;;4953265;28;20749;-66
2022/06/26 10:58:23;;;;;;;1.20;1.20;;;29.60;63.20;;;;;;4968431;28;20668;-65
2022/06/26 11:00:52;;;;;;;1.10;1.10;;;29.90;63.30;;;;;;4975025;28;21194;-65
2022/06/26 11:03:19;;;;;;;0.90;0.90;;;30.10;62.50;;;;;;4974939;28;20706;-63
2022/06/26 11:06:04;;;;;;;2.03;1.80;;;30.10;62.00;;;;;;4967163;28;20667;-65
2022/06/26 11:08:34;;;;;;;1.30;1.20;;;30.10;61.30;;;;;;4955908;28;20623;-65
2022/06/26 11:11:05;;;;;;;1.00;1.00;;;30.00;62.00;;;;;;4956269;28;20625;-63
2022/06/26 11:13:46;;;;;;;1.30;1.30;;;29.90;61.50;;;;;;4968814;28;20718;-65
2022/06/26 11:16:13;;;;;;;1.20;1.20;;;29.70;62.80;;;;;;4956913;28;20719;-64
2022/06/26 11:18:40;;;;;;;1.07;1.07;;;29.50;63.10;;;;;;4970900;28;20634;-65
2022/06/26 11:21:11;;;;;;;1.23;1.23;;;29.30;63.00;;;;;;4964025;28;20717;-66
2022/06/26 11:23:38;;;;;;;0.90;0.90;;;29.00;63.90;;;;;;4956141;28;20671;-64
2022/06/26 11:26:08;;;;;;;1.00;1.00;;;29.00;63.00;;;;;;4955532;28;20628;-66
2022/06/26 11:28:40;;;;;;;1.10;1.10;;;28.80;63.80;;;;;;4955025;28;20632;-64
2022/06/26 11:31:32;;;;;;;1.20;1.20;;;28.70;64.40;;;;;;4966953;28;20653;-65